sensor_id;sensor_type;location;lat;lon;timestamp;P1;durP1;ratioP1;P2;durP2;ratioP2
14316;SDS011;7242;50.858;6.586;2023-04-01T00:02:57;2.10;;;0.77;;
14316;SDS011;7242;50.858;6.586;2023-04-01T00:05:59;1.37;;;0.60;;
14316;SDS011;7242;50.858;6.586;2023-04-01T00:09:00;1.10;;;0.50;;
14316;SDS011;7242;50.858;6.586;2023-04-01T00:12:00;1.17;;;0.60;;
14316;SDS011;7242;50.858;6.586;2023-04-01T00:15:02;0.80;;;0.70;;
14316;SDS011;7242;50.858;6.586;2023-04-01T00:18:04;1.70;;;0.60;;
14316;SDS011;7242;50.858;6.586;2023-04-01T00:21:05;2.17;;;1.00;;
14316;SDS011;7242;50.858;6.586;2023-04-01T00:24:06;1.33;;;0.60;;
14316;SDS011;7242;50.858;6.586;2023-04-01T00:27:07;0.80;;;0.43;;
14316;SDS011;7242;50.858;6.586;2023-04-01T00:30:09;2.03;;;0.67;;
14316;SDS011;7242;50.858;6.586;2023-04-01T00:33:10;1.93;;;0.60;;
14316;SDS011;7242;50.858;6.586;2023-04-01T00:36:20;2.83;;;0.90;;
14316;SDS011;7242;50.858;6.586;2023-04-01T00:39:21;1.40;;;0.50;;
14316;SDS011;7242;50.858;6.586;2023-04-01T00:42:23;1.10;;;0.40;;
14316;SDS011;7242;50.858;6.586;2023-04-01T00:45:37;1.07;;;0.57;;
14316;SDS011;7242;50.858;6.586;2023-04-01T00:48:51;1.70;;;0.60;;
14316;SDS011;7242;50.858;6.586;2023-04-01T00:51:55;1.00;;;0.60;;
14316;SDS011;7242;50.858;6.586;2023-04-01T00:54:59;0.43;;;0.40;;
14316;SDS011;7242;50.858;6.586;2023-04-01T00:58:03;1.23;;;0.50;;
14316;SDS011;7242;50.858;6.586;2023-04-01T01:01:07;1.53;;;0.60;;
14316;SDS011;7242;50.858;6.586;2023-04-01T01:10:49;0.60;;;0.47;;
14316;SDS011;7242;50.858;6.586;2023-04-01T01:13:56;0.30;;;0.30;;
14316;SDS011;7242;50.858;6.586;2023-04-01T01:27:28;2.10;;;0.50;;
14316;SDS011;7242;50.858;6.586;2023-04-01T01:37:23;1.37;;;0.50;;
14316;SDS011;7242;50.858;6.586;2023-04-01T01:40:26;0.80;;;0.40;;
14316;SDS011;7242;50.858;6.586;2023-04-01T01:43:33;1.47;;;0.60;;
14316;SDS011;7242;50.858;6.586;2023-04-01T01:46:42;0.40;;;0.40;;
14316;SDS011;7242;50.858;6.586;2023-04-01T01:49:45;0.83;;;0.50;;
14316;SDS011;7242;50.858;6.586;2023-04-01T01:52:46;0.83;;;0.40;;
14316;SDS011;7242;50.858;6.586;2023-04-01T01:55:48;0.47;;;0.40;;
14316;SDS011;7242;50.858;6.586;2023-04-01T01:58:51;0.60;;;0.50;;
14316;SDS011;7242;50.858;6.586;2023-04-01T02:01:56;0.70;;;0.40;;
14316;SDS011;7242;50.858;6.586;2023-04-01T02:04:58;1.53;;;0.53;;
14316;SDS011;7242;50.858;6.586;2023-04-01T02:11:14;0.53;;;0.50;;
14316;SDS011;7242;50.858;6.586;2023-04-01T02:14:34;0.63;;;0.30;;
14316;SDS011;7242;50.858;6.586;2023-04-01T02:17:43;1.30;;;0.40;;
14316;SDS011;7242;50.858;6.586;2023-04-01T02:20:45;0.67;;;0.40;;
14316;SDS011;7242;50.858;6.586;2023-04-01T02:23:46;0.40;;;0.40;;
14316;SDS011;7242;50.858;6.586;2023-04-01T02:26:48;0.60;;;0.40;;
14316;SDS011;7242;50.858;6.586;2023-04-01T02:29:51;0.43;;;0.40;;
14316;SDS011;7242;50.858;6.586;2023-04-01T02:32:52;0.67;;;0.40;;
14316;SDS011;7242;50.858;6.586;2023-04-01T02:35:55;0.40;;;0.30;;
14316;SDS011;7242;50.858;6.586;2023-04-01T02:38:56;0.67;;;0.40;;
14316;SDS011;7242;50.858;6.586;2023-04-01T02:42:02;1.00;;;0.50;;
14316;SDS011;7242;50.858;6.586;2023-04-01T02:45:03;0.50;;;0.30;;
14316;SDS011;7242;50.858;6.586;2023-04-01T02:48:05;0.93;;;0.40;;
14316;SDS011;7242;50.858;6.586;2023-04-01T02:51:06;0.60;;;0.40;;
14316;SDS011;7242;50.858;6.586;2023-04-01T02:54:06;0.40;;;0.30;;
14316;SDS011;7242;50.858;6.586;2023-04-01T02:57:08;0.70;;;0.40;;
14316;SDS011;7242;50.858;6.586;2023-04-01T03:00:08;0.50;;;0.30;;
14316;SDS011;7242;50.858;6.586;2023-04-01T03:03:11;0.80;;;0.40;;
14316;SDS011;7242;50.858;6.586;2023-04-01T03:06:14;0.70;;;0.30;;
14316;SDS011;7242;50.858;6.586;2023-04-01T03:09:15;0.90;;;0.40;;
14316;SDS011;7242;50.858;6.586;2023-04-01T03:12:16;1.03;;;0.40;;
14316;SDS011;7242;50.858;6.586;2023-04-01T03:15:23;0.30;;;0.30;;
14316;SDS011;7242;50.858;6.586;2023-04-01T03:18:24;0.73;;;0.50;;
14316;SDS011;7242;50.858;6.586;2023-04-01T03:21:25;0.90;;;0.40;;
14316;SDS011;7242;50.858;6.586;2023-04-01T03:24:27;0.50;;;0.40;;
14316;SDS011;7242;50.858;6.586;2023-04-01T03:27:27;0.47;;;0.40;;
14316;SDS011;7242;50.858;6.586;2023-04-01T03:30:28;0.47;;;0.30;;
14316;SDS011;7242;50.858;6.586;2023-04-01T03:33:32;0.30;;;0.30;;
14316;SDS011;7242;50.858;6.586;2023-04-01T03:36:33;0.30;;;0.30;;
14316;SDS011;7242;50.858;6.586;2023-04-01T03:39:34;0.30;;;0.30;;
14316;SDS011;7242;50.858;6.586;2023-04-01T03:42:35;0.60;;;0.40;;
14316;SDS011;7242;50.858;6.586;2023-04-01T03:45:36;0.37;;;0.37;;
14316;SDS011;7242;50.858;6.586;2023-04-01T03:48:37;1.10;;;0.40;;
14316;SDS011;7242;50.858;6.586;2023-04-01T03:51:41;1.07;;;0.30;;
14316;SDS011;7242;50.858;6.586;2023-04-01T03:54:43;0.43;;;0.30;;
14316;SDS011;7242;50.858;6.586;2023-04-01T03:57:44;0.37;;;0.37;;
14316;SDS011;7242;50.858;6.586;2023-04-01T04:00:51;0.60;;;0.27;;
14316;SDS011;7242;50.858;6.586;2023-04-01T04:03:52;0.30;;;0.30;;
14316;SDS011;7242;50.858;6.586;2023-04-01T04:06:53;0.60;;;0.40;;
14316;SDS011;7242;50.858;6.586;2023-04-01T04:09:56;0.30;;;0.30;;
14316;SDS011;7242;50.858;6.586;2023-04-01T04:12:57;0.37;;;0.37;;
14316;SDS011;7242;50.858;6.586;2023-04-01T04:16:02;0.63;;;0.40;;
14316;SDS011;7242;50.858;6.586;2023-04-01T04:19:04;0.30;;;0.30;;
14316;SDS011;7242;50.858;6.586;2023-04-01T04:22:05;0.60;;;0.50;;
14316;SDS011;7242;50.858;6.586;2023-04-01T04:25:06;0.30;;;0.30;;
14316;SDS011;7242;50.858;6.586;2023-04-01T04:28:07;0.57;;;0.30;;
14316;SDS011;7242;50.858;6.586;2023-04-01T04:31:09;0.30;;;0.30;;
14316;SDS011;7242;50.858;6.586;2023-04-01T04:34:10;0.53;;;0.40;;
14316;SDS011;7242;50.858;6.586;2023-04-01T04:37:11;0.40;;;0.40;;
14316;SDS011;7242;50.858;6.586;2023-04-01T04:40:12;0.50;;;0.50;;
14316;SDS011;7242;50.858;6.586;2023-04-01T04:43:15;0.33;;;0.30;;
14316;SDS011;7242;50.858;6.586;2023-04-01T04:46:17;0.70;;;0.50;;
14316;SDS011;7242;50.858;6.586;2023-04-01T04:49:19;0.70;;;0.60;;
14316;SDS011;7242;50.858;6.586;2023-04-01T04:52:20;1.20;;;0.50;;
14316;SDS011;7242;50.858;6.586;2023-04-01T04:55:21;1.17;;;0.60;;
14316;SDS011;7242;50.858;6.586;2023-04-01T04:58:29;0.70;;;0.50;;
14316;SDS011;7242;50.858;6.586;2023-04-01T05:01:30;0.50;;;0.50;;
14316;SDS011;7242;50.858;6.586;2023-04-01T05:04:36;0.50;;;0.50;;
14316;SDS011;7242;50.858;6.586;2023-04-01T05:07:38;0.60;;;0.50;;
14316;SDS011;7242;50.858;6.586;2023-04-01T05:10:39;0.87;;;0.50;;
14316;SDS011;7242;50.858;6.586;2023-04-01T05:13:41;0.60;;;0.60;;
14316;SDS011;7242;50.858;6.586;2023-04-01T05:16:43;2.23;;;0.60;;
14316;SDS011;7242;50.858;6.586;2023-04-01T05:19:43;1.20;;;0.70;;
14316;SDS011;7242;50.858;6.586;2023-04-01T05:22:44;0.63;;;0.60;;
14316;SDS011;7242;50.858;6.586;2023-04-01T05:25:45;0.93;;;0.80;;
14316;SDS011;7242;50.858;6.586;2023-04-01T05:28:46;0.70;;;0.70;;
14316;SDS011;7242;50.858;6.586;2023-04-01T05:31:47;1.30;;;0.77;;
14316;SDS011;7242;50.858;6.586;2023-04-01T05:34:51;0.97;;;0.70;;
14316;SDS011;7242;50.858;6.586;2023-04-01T05:37:52;1.80;;;0.70;;
14316;SDS011;7242;50.858;6.586;2023-04-01T05:40:58;2.77;;;0.80;;
14316;SDS011;7242;50.858;6.586;2023-04-01T05:44:00;1.90;;;1.00;;
14316;SDS011;7242;50.858;6.586;2023-04-01T05:47:15;1.17;;;0.90;;
14316;SDS011;7242;50.858;6.586;2023-04-01T05:50:16;1.00;;;1.00;;
14316;SDS011;7242;50.858;6.586;2023-04-01T05:53:17;1.53;;;0.90;;
14316;SDS011;7242;50.858;6.586;2023-04-01T05:56:18;1.17;;;0.90;;
14316;SDS011;7242;50.858;6.586;2023-04-01T05:59:22;1.20;;;0.87;;
14316;SDS011;7242;50.858;6.586;2023-04-01T06:02:24;0.83;;;0.80;;
14316;SDS011;7242;50.858;6.586;2023-04-01T06:05:27;1.00;;;0.90;;
14316;SDS011;7242;50.858;6.586;2023-04-01T06:08:30;0.70;;;0.70;;
14316;SDS011;7242;50.858;6.586;2023-04-01T06:11:37;1.07;;;1.07;;
14316;SDS011;7242;50.858;6.586;2023-04-01T06:21:55;1.70;;;1.60;;
14316;SDS011;7242;50.858;6.586;2023-04-01T06:38:29;1.80;;;1.60;;
14316;SDS011;7242;50.858;6.586;2023-04-01T06:45:17;2.27;;;1.53;;
14316;SDS011;7242;50.858;6.586;2023-04-01T06:56:48;2.47;;;1.50;;
14316;SDS011;7242;50.858;6.586;2023-04-01T06:59:57;3.03;;;1.20;;
14316;SDS011;7242;50.858;6.586;2023-04-01T07:06:03;1.43;;;1.23;;
14316;SDS011;7242;50.858;6.586;2023-04-01T07:09:12;1.87;;;1.37;;
14316;SDS011;7242;50.858;6.586;2023-04-01T07:12:43;3.13;;;1.30;;
14316;SDS011;7242;50.858;6.586;2023-04-01T07:19:42;2.57;;;1.53;;
14316;SDS011;7242;50.858;6.586;2023-04-01T07:22:49;1.40;;;1.30;;
14316;SDS011;7242;50.858;6.586;2023-04-01T07:26:00;2.13;;;1.60;;
14316;SDS011;7242;50.858;6.586;2023-04-01T07:29:29;1.37;;;1.27;;
14316;SDS011;7242;50.858;6.586;2023-04-01T07:35:43;2.63;;;1.30;;
14316;SDS011;7242;50.858;6.586;2023-04-01T07:52:09;1.13;;;1.00;;
14316;SDS011;7242;50.858;6.586;2023-04-01T07:55:42;1.40;;;1.00;;
14316;SDS011;7242;50.858;6.586;2023-04-01T08:09:06;1.10;;;0.80;;
14316;SDS011;7242;50.858;6.586;2023-04-01T08:20:10;1.23;;;1.00;;
14316;SDS011;7242;50.858;6.586;2023-04-01T08:23:33;1.20;;;1.00;;
14316;SDS011;7242;50.858;6.586;2023-04-01T08:26:38;1.60;;;1.00;;
14316;SDS011;7242;50.858;6.586;2023-04-01T08:30:06;2.10;;;1.03;;
14316;SDS011;7242;50.858;6.586;2023-04-01T08:36:41;2.53;;;1.60;;
14316;SDS011;7242;50.858;6.586;2023-04-01T08:39:50;1.10;;;1.00;;
14316;SDS011;7242;50.858;6.586;2023-04-01T08:56:55;1.57;;;1.47;;
14316;SDS011;7242;50.858;6.586;2023-04-01T09:00:12;2.10;;;1.60;;
14316;SDS011;7242;50.858;6.586;2023-04-01T09:03:54;1.80;;;1.30;;
14316;SDS011;7242;50.858;6.586;2023-04-01T09:40:55;1.63;;;0.90;;
14316;SDS011;7242;50.858;6.586;2023-04-01T09:44:14;1.97;;;1.10;;
14316;SDS011;7242;50.858;6.586;2023-04-01T09:47:57;1.63;;;1.20;;
14316;SDS011;7242;50.858;6.586;2023-04-01T10:01:53;2.53;;;1.70;;
14316;SDS011;7242;50.858;6.586;2023-04-01T10:15:19;2.17;;;1.80;;
14316;SDS011;7242;50.858;6.586;2023-04-01T10:28:48;1.30;;;1.20;;
14316;SDS011;7242;50.858;6.586;2023-04-01T10:32:20;1.90;;;1.00;;
14316;SDS011;7242;50.858;6.586;2023-04-01T10:52:53;1.47;;;1.30;;
14316;SDS011;7242;50.858;6.586;2023-04-01T10:56:51;1.40;;;1.30;;
14316;SDS011;7242;50.858;6.586;2023-04-01T11:00:21;1.47;;;1.10;;
14316;SDS011;7242;50.858;6.586;2023-04-01T11:18:18;1.63;;;1.30;;
14316;SDS011;7242;50.858;6.586;2023-04-01T11:36:15;1.70;;;1.00;;
14316;SDS011;7242;50.858;6.586;2023-04-01T11:39:42;1.10;;;1.00;;
14316;SDS011;7242;50.858;6.586;2023-04-01T11:43:24;1.13;;;0.93;;
14316;SDS011;7242;50.858;6.586;2023-04-01T11:54:14;1.10;;;1.00;;
14316;SDS011;7242;50.858;6.586;2023-04-01T12:04:01;1.27;;;1.10;;
14316;SDS011;7242;50.858;6.586;2023-04-01T12:07:27;0.80;;;0.80;;
14316;SDS011;7242;50.858;6.586;2023-04-01T12:11:00;0.90;;;0.90;;
14316;SDS011;7242;50.858;6.586;2023-04-01T12:21:09;3.27;;;2.77;;
14316;SDS011;7242;50.858;6.586;2023-04-01T12:24:40;2.63;;;1.80;;
14316;SDS011;7242;50.858;6.586;2023-04-01T12:27:53;1.20;;;1.20;;
14316;SDS011;7242;50.858;6.586;2023-04-01T12:37:59;1.90;;;1.80;;
14316;SDS011;7242;50.858;6.586;2023-04-01T12:41:21;1.60;;;1.50;;
14316;SDS011;7242;50.858;6.586;2023-04-01T12:44:29;1.97;;;1.60;;
14316;SDS011;7242;50.858;6.586;2023-04-01T12:51:11;2.43;;;1.50;;
14316;SDS011;7242;50.858;6.586;2023-04-01T12:57:56;1.70;;;1.60;;
14316;SDS011;7242;50.858;6.586;2023-04-01T13:11:47;1.10;;;1.00;;
14316;SDS011;7242;50.858;6.586;2023-04-01T13:34:37;1.73;;;1.50;;
14316;SDS011;7242;50.858;6.586;2023-04-01T13:41:25;1.73;;;1.63;;
14316;SDS011;7242;50.858;6.586;2023-04-01T13:45:00;3.10;;;1.70;;
14316;SDS011;7242;50.858;6.586;2023-04-01T13:48:18;1.60;;;1.50;;
14316;SDS011;7242;50.858;6.586;2023-04-01T13:58:05;1.73;;;1.27;;
14316;SDS011;7242;50.858;6.586;2023-04-01T14:11:25;1.30;;;1.20;;
14316;SDS011;7242;50.858;6.586;2023-04-01T14:17:47;1.70;;;1.60;;
14316;SDS011;7242;50.858;6.586;2023-04-01T14:24:23;4.47;;;3.40;;
14316;SDS011;7242;50.858;6.586;2023-04-01T14:37:56;2.03;;;1.90;;
14316;SDS011;7242;50.858;6.586;2023-04-01T14:45:04;1.63;;;1.30;;
14316;SDS011;7242;50.858;6.586;2023-04-01T14:48:36;1.50;;;1.40;;
14316;SDS011;7242;50.858;6.586;2023-04-01T14:51:39;1.37;;;1.27;;
14316;SDS011;7242;50.858;6.586;2023-04-01T14:54:42;1.70;;;1.40;;
14316;SDS011;7242;50.858;6.586;2023-04-01T14:57:59;1.80;;;1.70;;
14316;SDS011;7242;50.858;6.586;2023-04-01T15:17:48;2.30;;;1.50;;
14316;SDS011;7242;50.858;6.586;2023-04-01T15:21:13;1.60;;;1.50;;
14316;SDS011;7242;50.858;6.586;2023-04-01T15:48:50;2.27;;;1.93;;
14316;SDS011;7242;50.858;6.586;2023-04-01T16:01:43;2.60;;;1.97;;
14316;SDS011;7242;50.858;6.586;2023-04-01T16:05:22;2.47;;;2.27;;
14316;SDS011;7242;50.858;6.586;2023-04-01T16:08:38;2.03;;;1.90;;
14316;SDS011;7242;50.858;6.586;2023-04-01T16:11:53;2.50;;;2.30;;
14316;SDS011;7242;50.858;6.586;2023-04-01T16:15:20;2.27;;;2.17;;
14316;SDS011;7242;50.858;6.586;2023-04-01T16:25:26;3.23;;;2.30;;
14316;SDS011;7242;50.858;6.586;2023-04-01T16:41:31;2.20;;;2.00;;
14316;SDS011;7242;50.858;6.586;2023-04-01T16:44:56;2.10;;;1.90;;
14316;SDS011;7242;50.858;6.586;2023-04-01T16:48:15;1.90;;;1.80;;
14316;SDS011;7242;50.858;6.586;2023-04-01T16:51:20;2.00;;;1.90;;
14316;SDS011;7242;50.858;6.586;2023-04-01T16:57:51;1.67;;;1.57;;
14316;SDS011;7242;50.858;6.586;2023-04-01T17:01:04;1.67;;;1.57;;
14316;SDS011;7242;50.858;6.586;2023-04-01T17:07:53;1.60;;;1.50;;
14316;SDS011;7242;50.858;6.586;2023-04-01T17:11:18;1.80;;;1.70;;
14316;SDS011;7242;50.858;6.586;2023-04-01T17:23:43;2.20;;;2.00;;
14316;SDS011;7242;50.858;6.586;2023-04-01T17:40:54;2.03;;;1.93;;
14316;SDS011;7242;50.858;6.586;2023-04-01T17:44:13;2.60;;;2.40;;
14316;SDS011;7242;50.858;6.586;2023-04-01T17:54:51;3.00;;;2.30;;
14316;SDS011;7242;50.858;6.586;2023-04-01T18:08:26;2.10;;;2.00;;
14316;SDS011;7242;50.858;6.586;2023-04-01T18:12:12;2.60;;;2.40;;
14316;SDS011;7242;50.858;6.586;2023-04-01T18:15:52;2.33;;;2.13;;
14316;SDS011;7242;50.858;6.586;2023-04-01T18:22:15;3.00;;;2.80;;
14316;SDS011;7242;50.858;6.586;2023-04-01T18:28:56;3.60;;;3.33;;
14316;SDS011;7242;50.858;6.586;2023-04-01T18:35:29;4.00;;;3.60;;
14316;SDS011;7242;50.858;6.586;2023-04-01T18:38:35;3.10;;;2.90;;
14316;SDS011;7242;50.858;6.586;2023-04-01T18:44:53;3.40;;;3.10;;
14316;SDS011;7242;50.858;6.586;2023-04-01T18:47:58;3.50;;;3.20;;
14316;SDS011;7242;50.858;6.586;2023-04-01T19:01:26;4.20;;;3.90;;
14316;SDS011;7242;50.858;6.586;2023-04-01T19:11:20;3.97;;;3.67;;
14316;SDS011;7242;50.858;6.586;2023-04-01T19:21:40;5.00;;;4.60;;
14316;SDS011;7242;50.858;6.586;2023-04-01T19:24:53;6.07;;;5.20;;
14316;SDS011;7242;50.858;6.586;2023-04-01T19:38:38;5.57;;;5.07;;
14316;SDS011;7242;50.858;6.586;2023-04-01T19:41:43;5.80;;;5.30;;
14316;SDS011;7242;50.858;6.586;2023-04-01T19:51:32;4.53;;;4.13;;
14316;SDS011;7242;50.858;6.586;2023-04-01T19:54:46;2.97;;;2.67;;
14316;SDS011;7242;50.858;6.586;2023-04-01T19:58:09;3.03;;;2.73;;
14316;SDS011;7242;50.858;6.586;2023-04-01T20:02:03;3.57;;;3.20;;
14316;SDS011;7242;50.858;6.586;2023-04-01T20:05:03;3.40;;;3.10;;
14316;SDS011;7242;50.858;6.586;2023-04-01T20:14:53;2.80;;;2.60;;
14316;SDS011;7242;50.858;6.586;2023-04-01T20:17:56;3.00;;;2.70;;
14316;SDS011;7242;50.858;6.586;2023-04-01T20:21:05;2.80;;;2.60;;
14316;SDS011;7242;50.858;6.586;2023-04-01T20:27:32;2.60;;;2.40;;
14316;SDS011;7242;50.858;6.586;2023-04-01T20:37:25;2.43;;;2.23;;
14316;SDS011;7242;50.858;6.586;2023-04-01T20:40:44;2.87;;;2.40;;
14316;SDS011;7242;50.858;6.586;2023-04-01T20:47:01;2.50;;;2.30;;
14316;SDS011;7242;50.858;6.586;2023-04-01T20:56:29;3.20;;;3.00;;
14316;SDS011;7242;50.858;6.586;2023-04-01T21:00:15;3.07;;;2.87;;
14316;SDS011;7242;50.858;6.586;2023-04-01T21:06:21;3.40;;;3.20;;
14316;SDS011;7242;50.858;6.586;2023-04-01T21:12:46;4.20;;;3.90;;
14316;SDS011;7242;50.858;6.586;2023-04-01T21:16:15;4.10;;;3.70;;
14316;SDS011;7242;50.858;6.586;2023-04-01T21:19:41;3.70;;;3.40;;
14316;SDS011;7242;50.858;6.586;2023-04-01T21:22:53;4.00;;;3.70;;
14316;SDS011;7242;50.858;6.586;2023-04-01T21:26:21;4.20;;;3.90;;
14316;SDS011;7242;50.858;6.586;2023-04-01T21:32:53;4.10;;;3.70;;
14316;SDS011;7242;50.858;6.586;2023-04-01T21:42:37;4.30;;;3.90;;
14316;SDS011;7242;50.858;6.586;2023-04-01T21:56:22;5.17;;;4.67;;
14316;SDS011;7242;50.858;6.586;2023-04-01T22:03:07;5.50;;;5.00;;
14316;SDS011;7242;50.858;6.586;2023-04-01T22:09:46;5.80;;;5.30;;
14316;SDS011;7242;50.858;6.586;2023-04-01T22:16:23;6.30;;;5.80;;
14316;SDS011;7242;50.858;6.586;2023-04-01T22:19:41;8.20;;;7.60;;
14316;SDS011;7242;50.858;6.586;2023-04-01T22:29:38;11.43;;;10.53;;
14316;SDS011;7242;50.858;6.586;2023-04-01T22:45:27;10.00;;;8.97;;
14316;SDS011;7242;50.858;6.586;2023-04-01T22:52:32;6.13;;;5.60;;
14316;SDS011;7242;50.858;6.586;2023-04-01T22:55:40;5.77;;;5.27;;
14316;SDS011;7242;50.858;6.586;2023-04-01T23:05:15;9.83;;;9.03;;
14316;SDS011;7242;50.858;6.586;2023-04-01T23:15:00;8.27;;;7.67;;
14316;SDS011;7242;50.858;6.586;2023-04-01T23:21:13;7.40;;;6.80;;
14316;SDS011;7242;50.858;6.586;2023-04-01T23:24:33;7.10;;;6.37;;
14316;SDS011;7242;50.858;6.586;2023-04-01T23:27:40;6.10;;;5.70;;
14316;SDS011;7242;50.858;6.586;2023-04-01T23:33:50;4.73;;;4.43;;
14316;SDS011;7242;50.858;6.586;2023-04-01T23:37:02;4.70;;;4.40;;
14316;SDS011;7242;50.858;6.586;2023-04-01T23:40:04;4.60;;;4.20;;
14316;SDS011;7242;50.858;6.586;2023-04-01T23:43:14;4.43;;;4.10;;
14316;SDS011;7242;50.858;6.586;2023-04-01T23:46:16;5.17;;;4.77;;
14316;SDS011;7242;50.858;6.586;2023-04-01T23:49:21;5.80;;;5.40;;
14316;SDS011;7242;50.858;6.586;2023-04-01T23:52:30;5.73;;;5.33;;
14316;SDS011;7242;50.858;6.586;2023-04-01T23:55:32;6.47;;;5.97;;
